Wetterdaten: Woche 10.05.10 - 16.05.10 (KW19)
Datum Zeit Temperatur Luftfeuchte Luftdruck Niederschlag Wind Richtung Sonnenschein Solar Taupunkt Windchill Windben
10.05.2010 00:00 10.6 C 96 % 1005.9 hPa 1.6 l/m 0.1 km/h (0 Bft) SO 0.00 h 0 W/m 10.0 C 10.6 C 0.3 km/h (0 Bft)
10.05.2010 01:00 10.6 C 96 % 1005.4 hPa 0.8 l/m 0.0 km/h (0 Bft) N 0.00 h 0 W/m 10.0 C 10.6 C 0.0 km/h (0 Bft)
10.05.2010 02:00 10.7 C 96 % 1004.9 hPa 0.0 l/m 0.0 km/h (0 Bft) SO 0.00 h 0 W/m 10.1 C 10.7 C 0.3 km/h (0 Bft)
10.05.2010 03:00 10.8 C 95 % 1004.5 hPa 0.0 l/m 0.1 km/h (0 Bft) SO 0.00 h 0 W/m 10.0 C 10.8 C 0.7 km/h (0 Bft)
10.05.2010 04:00 10.7 C 95 % 1004.3 hPa 0.2 l/m 0.0 km/h (0 Bft) N 0.00 h 0 W/m 9.9 C 10.7 C 0.2 km/h (0 Bft)
10.05.2010 05:00 10.6 C 96 % 1004.2 hPa 0.6 l/m 0.0 km/h (0 Bft) N 0.00 h 0 W/m 9.9 C 10.6 C 0.0 km/h (0 Bft)
10.05.2010 06:00 10.6 C 96 % 1004.5 hPa 1.4 l/m 0.1 km/h (0 Bft) SO 0.00 h 8 W/m 10.0 C 10.6 C 1.1 km/h (1 Bft)
10.05.2010 07:00 10.7 C 96 % 1004.8 hPa 0.2 l/m 0.3 km/h (0 Bft) SO 0.00 h 21 W/m 10.1 C 10.7 C 0.9 km/h (0 Bft)
10.05.2010 08:00 11.2 C 94 % 1004.8 hPa 0.0 l/m 0.9 km/h (0 Bft) S-SO 0.00 h 42 W/m 10.3 C 11.2 C 2.4 km/h (1 Bft)
10.05.2010 09:00 11.9 C 94 % 1005.0 hPa 0.0 l/m 2.2 km/h (1 Bft) S-SO 0.00 h 148 W/m 10.9 C 11.9 C 5.2 km/h (1 Bft)
10.05.2010 10:00 12.9 C 92 % 1005.2 hPa 0.0 l/m 3.0 km/h (1 Bft) S-SO 0.00 h 247 W/m 11.7 C 12.9 C 6.8 km/h (2 Bft)
10.05.2010 11:00 14.0 C 89 % 1005.1 hPa 0.0 l/m 3.4 km/h (1 Bft) S 0.08 h 315 W/m 12.3 C 14.0 C 6.9 km/h (2 Bft)
10.05.2010 12:00 14.1 C 88 % 1005.0 hPa 0.0 l/m 5.1 km/h (1 Bft) N-NW 0.05 h 239 W/m 12.2 C 14.1 C 8.2 km/h (2 Bft)
10.05.2010 13:00 14.8 C 86 % 1005.1 hPa 0.0 l/m 3.2 km/h (1 Bft) W 0.07 h 293 W/m 12.5 C 14.8 C 5.6 km/h (1 Bft)
10.05.2010 14:00 13.6 C 92 % 1005.2 hPa 1.0 l/m 2.3 km/h (1 Bft) W 0.00 h 93 W/m 12.3 C 13.6 C 4.0 km/h (1 Bft)
10.05.2010 15:00 14.4 C 91 % 1005.2 hPa 0.0 l/m 1.9 km/h (1 Bft) W-NW 0.10 h 335 W/m 13.0 C 14.4 C 3.6 km/h (1 Bft)
10.05.2010 16:00 15.4 C 83 % 1004.9 hPa 0.0 l/m 8.3 km/h (2 Bft) W-NW 0.52 h 464 W/m 12.5 C 15.4 C 13.2 km/h (3 Bft)
10.05.2010 17:00 16.5 C 74 % 1004.9 hPa 0.0 l/m 4.8 km/h (1 Bft) W 0.97 h 462 W/m 11.8 C 16.5 C 8.0 km/h (2 Bft)
10.05.2010 18:00 15.9 C 73 % 1005.1 hPa 0.0 l/m 3.7 km/h (1 Bft) W-NW 0.32 h 192 W/m 11.1 C 15.9 C 6.2 km/h (2 Bft)
10.05.2010 19:00 15.4 C 78 % 1005.0 hPa 0.0 l/m 0.0 km/h (0 Bft) N 0.22 h 74 W/m 11.5 C 15.4 C 0.4 km/h (0 Bft)
10.05.2010 20:00 15.1 C 80 % 1005.4 hPa 0.0 l/m 0.4 km/h (0 Bft) W-NW 0.23 h 32 W/m 11.7 C 15.1 C 1.8 km/h (1 Bft)
10.05.2010 21:00 13.5 C 88 % 1005.9 hPa 0.0 l/m 0.9 km/h (0 Bft) O 0.00 h 0 W/m 11.6 C 13.5 C 1.9 km/h (1 Bft)
10.05.2010 22:00 12.2 C 91 % 1006.2 hPa 0.0 l/m 0.1 km/h (0 Bft) O 0.00 h 0 W/m 10.8 C 12.2 C 0.6 km/h (0 Bft)
10.05.2010 23:00 11.8 C 94 % 1006.1 hPa 0.0 l/m 0.7 km/h (0 Bft) O-NO 0.00 h 0 W/m 10.8 C 11.8 C 1.6 km/h (1 Bft)
11.05.2010 00:00 11.1 C 95 % 1006.0 hPa 0.0 l/m 0.4 km/h (0 Bft) N-NW 0.00 h 0 W/m 10.3 C 11.1 C 1.4 km/h (1 Bft)
11.05.2010 01:00 10.1 C 96 % 1006.1 hPa 0.0 l/m 0.3 km/h (0 Bft) O 0.00 h 0 W/m 9.4 C 10.1 C 0.8 km/h (0 Bft)
11.05.2010 02:00 9.8 C 96 % 1005.9 hPa 0.0 l/m 0.2 km/h (0 Bft) O 0.00 h 0 W/m 9.2 C 9.8 C 0.4 km/h (0 Bft)
11.05.2010 03:00 9.8 C 97 % 1005.5 hPa 0.0 l/m 0.2 km/h (0 Bft) O 0.00 h 0 W/m 9.4 C 9.8 C 1.1 km/h (1 Bft)
11.05.2010 04:00 9.8 C 97 % 1005.3 hPa 0.0 l/m 0.0 km/h (0 Bft) NW 0.00 h 0 W/m 9.4 C 9.8 C 0.4 km/h (0 Bft)
11.05.2010 05:00 9.4 C 97 % 1005.0 hPa 0.0 l/m 0.1 km/h (0 Bft) NW 0.00 h 0 W/m 9.0 C 9.4 C 0.8 km/h (0 Bft)
11.05.2010 06:00 9.3 C 97 % 1005.0 hPa 0.0 l/m 0.6 km/h (0 Bft) NW 0.00 h 9 W/m 8.8 C 9.3 C 1.5 km/h (1 Bft)
11.05.2010 07:00 9.3 C 97 % 1005.0 hPa 0.0 l/m 0.3 km/h (0 Bft) NW 0.00 h 32 W/m 8.9 C 9.3 C 1.0 km/h (0 Bft)
11.05.2010 08:00 10.2 C 97 % 1004.7 hPa 0.0 l/m 0.9 km/h (0 Bft) N-NW 0.00 h 76 W/m 9.7 C 10.2 C 2.6 km/h (1 Bft)
11.05.2010 09:00 11.2 C 94 % 1004.1 hPa 0.0 l/m 1.4 km/h (1 Bft) O-SO 0.07 h 191 W/m 10.3 C 11.2 C 3.6 km/h (1 Bft)
11.05.2010 10:00 13.0 C 89 % 1003.0 hPa 0.0 l/m 4.3 km/h (1 Bft) O-SO 0.62 h 451 W/m 11.1 C 13.0 C 8.0 km/h (2 Bft)
11.05.2010 11:00 14.8 C 82 % 1002.0 hPa 0.0 l/m 3.9 km/h (1 Bft) O-SO 0.55 h 435 W/m 11.8 C 14.8 C 7.0 km/h (2 Bft)
11.05.2010 12:00 16.8 C 74 % 1001.6 hPa 0.0 l/m 2.3 km/h (1 Bft) W-NW 0.67 h 629 W/m 12.1 C 16.8 C 4.3 km/h (1 Bft)
11.05.2010 13:00 19.3 C 64 % 1000.5 hPa 0.0 l/m 4.2 km/h (1 Bft) O-SO 1.00 h 849 W/m 12.4 C 19.3 C 8.7 km/h (2 Bft)
11.05.2010 14:00 20.7 C 58 % 999.4 hPa 0.0 l/m 4.8 km/h (1 Bft) O-SO 1.00 h 837 W/m 12.0 C 20.7 C 9.0 km/h (2 Bft)
11.05.2010 15:00 19.3 C 59 % 999.4 hPa 0.0 l/m 9.1 km/h (2 Bft) W 0.28 h 379 W/m 11.1 C 19.3 C 15.4 km/h (3 Bft)
11.05.2010 16:00 14.1 C 80 % 1000.8 hPa 0.0 l/m 21.8 km/h (4 Bft) W 0.00 h 38 W/m 10.7 C 14.1 C 34.1 km/h (5 Bft)
11.05.2010 17:00 12.3 C 90 % 1002.3 hPa 2.6 l/m 20.5 km/h (4 Bft) W 0.00 h 40 W/m 10.7 C 12.3 C 31.7 km/h (5 Bft)
11.05.2010 18:00 12.0 C 93 % 1003.5 hPa 1.2 l/m 4.8 km/h (1 Bft) W 0.00 h 38 W/m 11.0 C 12.0 C 9.0 km/h (2 Bft)
11.05.2010 19:00 12.0 C 93 % 1004.4 hPa 0.8 l/m 4.0 km/h (1 Bft) S-SO 0.00 h 16 W/m 10.9 C 12.0 C 7.4 km/h (2 Bft)
11.05.2010 20:00 11.5 C 93 % 1004.8 hPa 0.0 l/m 2.1 km/h (1 Bft) S-SO 0.27 h 17 W/m 10.4 C 11.5 C 4.6 km/h (1 Bft)
11.05.2010 21:00 11.1 C 95 % 1005.0 hPa 0.0 l/m 0.4 km/h (0 Bft) W-NW 0.00 h 0 W/m 10.3 C 11.1 C 1.4 km/h (1 Bft)
11.05.2010 22:00 11.3 C 94 % 1005.2 hPa 0.0 l/m 0.3 km/h (0 Bft) S-SO 0.00 h 0 W/m 10.4 C 11.3 C 1.2 km/h (1 Bft)
11.05.2010 23:00 11.1 C 95 % 1005.3 hPa 0.0 l/m 0.8 km/h (0 Bft) SO 0.00 h 0 W/m 10.3 C 11.1 C 1.9 km/h (1 Bft)
12.05.2010 00:00 11.3 C 94 % 1005.7 hPa 0.0 l/m 0.6 km/h (0 Bft) S 0.00 h 0 W/m 10.4 C 11.3 C 1.7 km/h (1 Bft)
12.05.2010 01:00 10.8 C 95 % 1005.6 hPa 0.0 l/m 0.5 km/h (0 Bft) W 0.00 h 0 W/m 10.0 C 10.8 C 1.6 km/h (1 Bft)
12.05.2010 02:00 10.5 C 94 % 1005.5 hPa 0.0 l/m 0.3 km/h (0 Bft) W 0.00 h 0 W/m 9.6 C 10.5 C 0.8 km/h (0 Bft)
12.05.2010 03:00 9.5 C 95 % 1006.0 hPa 0.0 l/m 0.2 km/h (0 Bft) W 0.00 h 0 W/m 8.7 C 9.5 C 1.1 km/h (0 Bft)
12.05.2010 04:00 9.0 C 95 % 1006.5 hPa 0.0 l/m 0.5 km/h (0 Bft) SO 0.00 h 0 W/m 8.2 C 9.0 C 1.1 km/h (1 Bft)
12.05.2010 05:00 8.4 C 95 % 1007.0 hPa 0.0 l/m 2.0 km/h (1 Bft) O-SO 0.00 h 0 W/m 7.7 C 8.3 C 3.3 km/h (1 Bft)
12.05.2010 06:00 8.4 C 96 % 1007.2 hPa 0.0 l/m 1.1 km/h (1 Bft) O-SO 0.00 h 17 W/m 7.7 C 8.3 C 1.8 km/h (1 Bft)
12.05.2010 07:00 8.7 C 97 % 1007.5 hPa 0.0 l/m 0.2 km/h (0 Bft) O-SO 0.00 h 77 W/m 8.2 C 8.7 C 0.8 km/h (0 Bft)
12.05.2010 08:00 9.8 C 96 % 1007.6 hPa 0.0 l/m 0.7 km/h (0 Bft) W 0.35 h 200 W/m 9.3 C 9.8 C 2.4 km/h (1 Bft)
12.05.2010 09:00 11.2 C 91 % 1007.6 hPa 0.0 l/m 2.5 km/h (1 Bft) NW 0.80 h 358 W/m 9.9 C 11.2 C 4.7 km/h (1 Bft)
12.05.2010 10:00 13.0 C 81 % 1007.5 hPa 0.0 l/m 1.5 km/h (1 Bft) NW 0.72 h 585 W/m 9.9 C 13.0 C 3.3 km/h (1 Bft)
12.05.2010 11:00 15.3 C 71 % 1007.1 hPa 0.0 l/m 1.5 km/h (1 Bft) W-SW 0.78 h 709 W/m 10.1 C 15.3 C 3.4 km/h (1 Bft)
12.05.2010 12:00 16.8 C 65 % 1006.6 hPa 0.0 l/m 2.5 km/h (1 Bft) SO 1.00 h 871 W/m 10.0 C 16.8 C 5.1 km/h (1 Bft)
12.05.2010 13:00 17.5 C 56 % 1006.1 hPa 0.0 l/m 2.5 km/h (1 Bft) W-NW 0.98 h 736 W/m 8.6 C 17.5 C 4.9 km/h (1 Bft)
12.05.2010 14:00 18.0 C 54 % 1005.6 hPa 0.0 l/m 3.0 km/h (1 Bft) SO 0.98 h 608 W/m 8.5 C 18.0 C 5.4 km/h (1 Bft)
12.05.2010 15:00 17.9 C 54 % 1005.4 hPa 0.0 l/m 2.4 km/h (1 Bft) O-SO 0.72 h 455 W/m 8.5 C 17.9 C 4.6 km/h (1 Bft)
12.05.2010 16:00 18.1 C 51 % 1005.0 hPa 0.0 l/m 1.4 km/h (1 Bft) O-SO 0.50 h 404 W/m 7.7 C 18.1 C 3.2 km/h (1 Bft)
12.05.2010 17:00 17.9 C 56 % 1004.9 hPa 0.0 l/m 5.3 km/h (1 Bft) W 0.08 h 224 W/m 8.9 C 17.9 C 8.5 km/h (2 Bft)
12.05.2010 18:00 15.5 C 67 % 1005.2 hPa 0.0 l/m 7.0 km/h (2 Bft) NW 0.00 h 83 W/m 9.4 C 15.5 C 11.2 km/h (2 Bft)
12.05.2010 19:00 14.3 C 78 % 1005.7 hPa 0.6 l/m 2.1 km/h (1 Bft) W-NW 0.00 h 23 W/m 10.4 C 14.3 C 4.5 km/h (1 Bft)
12.05.2010 20:00 12.5 C 91 % 1006.2 hPa 2.0 l/m 0.4 km/h (0 Bft) W-SW 0.00 h 0 W/m 11.1 C 12.5 C 1.2 km/h (1 Bft)
12.05.2010 21:00 12.0 C 94 % 1006.6 hPa 2.4 l/m 1.8 km/h (1 Bft) N-NW 0.00 h 0 W/m 11.1 C 12.0 C 3.8 km/h (1 Bft)
12.05.2010 22:00 11.7 C 95 % 1006.6 hPa 0.2 l/m 3.0 km/h (1 Bft) N-NW 0.00 h 0 W/m 10.9 C 11.7 C 5.5 km/h (1 Bft)
12.05.2010 23:00 11.2 C 95 % 1006.6 hPa 7.8 l/m 0.7 km/h (0 Bft) NO 0.00 h 0 W/m 10.3 C 11.2 C 2.1 km/h (1 Bft)
13.05.2010 00:00 10.6 C 96 % 1006.4 hPa 8.4 l/m 2.5 km/h (1 Bft) N-NW 0.00 h 0 W/m 10.0 C 10.6 C 4.6 km/h (1 Bft)
13.05.2010 01:00 10.3 C 96 % 1006.0 hPa 2.4 l/m 3.5 km/h (1 Bft) N-NW 0.00 h 0 W/m 9.7 C 10.3 C 6.3 km/h (2 Bft)
13.05.2010 02:00 9.8 C 97 % 1005.7 hPa 3.2 l/m 4.0 km/h (1 Bft) N-NW 0.00 h 0 W/m 9.4 C 9.7 C 6.5 km/h (2 Bft)
13.05.2010 03:00 9.0 C 96 % 1005.8 hPa 1.2 l/m 4.4 km/h (1 Bft) NW 0.00 h 0 W/m 8.4 C 8.7 C 7.4 km/h (2 Bft)
13.05.2010 04:00 8.6 C 96 % 1006.1 hPa 0.4 l/m 2.9 km/h (1 Bft) N-NW 0.00 h 0 W/m 8.0 C 8.4 C 5.2 km/h (1 Bft)
13.05.2010 05:00 8.3 C 96 % 1006.3 hPa 1.6 l/m 1.1 km/h (0 Bft) NW 0.00 h 0 W/m 7.7 C 8.2 C 3.0 km/h (1 Bft)
13.05.2010 06:00 8.1 C 96 % 1006.9 hPa 1.8 l/m 0.7 km/h (0 Bft) W 0.00 h 6 W/m 7.5 C 8.0 C 1.7 km/h (1 Bft)
13.05.2010 07:00 7.9 C 96 % 1007.7 hPa 1.4 l/m 1.2 km/h (1 Bft) W-NW 0.00 h 26 W/m 7.3 C 7.9 C 2.6 km/h (1 Bft)
13.05.2010 08:00 8.1 C 96 % 1008.6 hPa 0.8 l/m 1.4 km/h (1 Bft) W 0.00 h 76 W/m 7.6 C 8.1 C 2.7 km/h (1 Bft)
13.05.2010 09:00 8.5 C 96 % 1009.2 hPa 0.8 l/m 0.3 km/h (0 Bft) NW 0.00 h 137 W/m 8.0 C 8.5 C 1.2 km/h (1 Bft)
13.05.2010 10:00 8.7 C 93 % 1009.2 hPa 0.6 l/m 1.2 km/h (1 Bft) N 0.00 h 144 W/m 7.6 C 8.7 C 3.2 km/h (1 Bft)
13.05.2010 11:00 8.3 C 93 % 1009.6 hPa 1.0 l/m 3.2 km/h (1 Bft) O-SO 0.00 h 146 W/m 7.2 C 8.0 C 5.7 km/h (1 Bft)
13.05.2010 12:00 8.6 C 92 % 1010.0 hPa 1.4 l/m 2.7 km/h (1 Bft) O-SO 0.00 h 247 W/m 7.4 C 8.5 C 5.2 km/h (1 Bft)
13.05.2010 13:00 9.1 C 91 % 1010.0 hPa 0.4 l/m 3.1 km/h (1 Bft) O-SO 0.13 h 363 W/m 7.6 C 9.0 C 5.6 km/h (1 Bft)
13.05.2010 14:00 9.4 C 93 % 1009.9 hPa 0.6 l/m 0.6 km/h (0 Bft) O 0.00 h 123 W/m 8.3 C 9.4 C 1.6 km/h (1 Bft)
13.05.2010 15:00 9.3 C 93 % 1009.9 hPa 1.2 l/m 0.3 km/h (0 Bft) SO 0.00 h 145 W/m 8.1 C 9.3 C 1.0 km/h (0 Bft)
13.05.2010 16:00 9.4 C 95 % 1009.8 hPa 0.4 l/m 0.6 km/h (0 Bft) W-SW 0.00 h 153 W/m 8.7 C 9.4 C 2.2 km/h (1 Bft)
13.05.2010 17:00 9.5 C 95 % 1009.8 hPa 0.4 l/m 0.1 km/h (0 Bft) W-SW 0.00 h 86 W/m 8.8 C 9.5 C 0.6 km/h (0 Bft)
13.05.2010 18:00 9.1 C 94 % 1009.9 hPa 0.0 l/m 0.2 km/h (0 Bft) S 0.00 h 28 W/m 8.2 C 9.1 C 0.5 km/h (0 Bft)
13.05.2010 19:00 8.9 C 95 % 1009.9 hPa 0.0 l/m 0.7 km/h (0 Bft) W 0.00 h 15 W/m 8.1 C 8.9 C 1.8 km/h (1 Bft)
13.05.2010 20:00 8.6 C 96 % 1010.1 hPa 0.0 l/m 0.5 km/h (0 Bft) N 0.00 h 9 W/m 8.0 C 8.6 C 2.0 km/h (1 Bft)
13.05.2010 21:00 8.3 C 96 % 1010.2 hPa 0.0 l/m 0.5 km/h (0 Bft) N-NW 0.00 h 0 W/m 7.7 C 8.3 C 1.8 km/h (1 Bft)
13.05.2010 22:00 8.2 C 96 % 1010.5 hPa 0.2 l/m 0.0 km/h (0 Bft) N-NW 0.00 h 0 W/m 7.6 C 8.2 C 0.1 km/h (0 Bft)
13.05.2010 23:00 8.2 C 96 % 1010.3 hPa 0.0 l/m 1.1 km/h (0 Bft) N-NW 0.00 h 0 W/m 7.6 C 8.2 C 2.6 km/h (1 Bft)
14.05.2010 00:00 8.2 C 96 % 1010.1 hPa 0.0 l/m 1.5 km/h (1 Bft) N-NW 0.00 h 0 W/m 7.6 C 8.2 C 3.3 km/h (1 Bft)
14.05.2010 01:00 8.1 C 96 % 1009.9 hPa 0.0 l/m 1.2 km/h (1 Bft) N-NW 0.00 h 0 W/m 7.5 C 8.1 C 2.9 km/h (1 Bft)
14.05.2010 02:00 7.9 C 96 % 1009.6 hPa 0.0 l/m 1.1 km/h (0 Bft) N-NW 0.00 h 0 W/m 7.3 C 7.9 C 2.6 km/h (1 Bft)
14.05.2010 03:00 7.9 C 96 % 1009.4 hPa 0.0 l/m 1.1 km/h (1 Bft) N-NW 0.00 h 0 W/m 7.3 C 7.9 C 2.7 km/h (1 Bft)
14.05.2010 04:00 7.8 C 96 % 1009.1 hPa 0.0 l/m 0.3 km/h (0 Bft) N-NW 0.00 h 0 W/m 7.2 C 7.8 C 1.1 km/h (0 Bft)
14.05.2010 05:00 7.7 C 95 % 1009.0 hPa 0.4 l/m 0.5 km/h (0 Bft) N-NW 0.00 h 0 W/m 6.9 C 7.7 C 1.4 km/h (1 Bft)
14.05.2010 06:00 7.3 C 95 % 1009.1 hPa 0.2 l/m 0.2 km/h (0 Bft) O-SO 0.00 h 19 W/m 6.5 C 7.3 C 0.9 km/h (0 Bft)
14.05.2010 07:00 7.6 C 95 % 1009.1 hPa 0.0 l/m 0.1 km/h (0 Bft) S-SO 0.00 h 73 W/m 6.7 C 7.6 C 0.7 km/h (0 Bft)
14.05.2010 08:00 8.0 C 92 % 1009.3 hPa 0.0 l/m 0.3 km/h (0 Bft) O 0.00 h 130 W/m 6.8 C 8.0 C 1.2 km/h (1 Bft)
14.05.2010 09:00 8.7 C 91 % 1009.1 hPa 0.0 l/m 0.7 km/h (0 Bft) W 0.15 h 252 W/m 7.3 C 8.7 C 2.0 km/h (1 Bft)
14.05.2010 10:00 10.0 C 87 % 1009.0 hPa 0.0 l/m 2.4 km/h (1 Bft) W-NW 0.42 h 323 W/m 8.0 C 10.0 C 4.8 km/h (1 Bft)
14.05.2010 11:00 10.3 C 87 % 1009.0 hPa 0.0 l/m 3.5 km/h (1 Bft) N-NW 0.10 h 322 W/m 8.2 C 10.2 C 6.0 km/h (2 Bft)
14.05.2010 12:00 11.4 C 81 % 1008.7 hPa 0.0 l/m 4.6 km/h (1 Bft) N-NW 0.50 h 488 W/m 8.3 C 11.4 C 7.1 km/h (2 Bft)
14.05.2010 13:00 11.3 C 79 % 1008.7 hPa 0.0 l/m 2.6 km/h (1 Bft) W-NW 0.00 h 206 W/m 7.7 C 11.3 C 4.8 km/h (1 Bft)
14.05.2010 14:00 11.0 C 80 % 1008.6 hPa 0.0 l/m 2.5 km/h (1 Bft) N-NW 0.00 h 168 W/m 7.8 C 11.0 C 4.6 km/h (1 Bft)
14.05.2010 15:00 11.8 C 78 % 1008.7 hPa 0.0 l/m 4.4 km/h (1 Bft) N-NW 0.00 h 284 W/m 8.0 C 11.8 C 7.1 km/h (2 Bft)
14.05.2010 16:00 11.5 C 81 % 1008.8 hPa 0.0 l/m 5.8 km/h (2 Bft) W-NW 0.22 h 267 W/m 8.3 C 11.5 C 8.9 km/h (2 Bft)
14.05.2010 17:00 10.8 C 83 % 1009.0 hPa 0.0 l/m 3.7 km/h (1 Bft) N-NW 0.00 h 67 W/m 8.0 C 10.8 C 6.5 km/h (2 Bft)
14.05.2010 18:00 10.4 C 85 % 1008.9 hPa 0.0 l/m 2.7 km/h (1 Bft) N-NW 0.00 h 51 W/m 8.0 C 10.4 C 5.1 km/h (1 Bft)
14.05.2010 19:00 10.3 C 84 % 1008.9 hPa 0.0 l/m 2.8 km/h (1 Bft) N-NW 0.00 h 46 W/m 7.8 C 10.3 C 5.3 km/h (1 Bft)
14.05.2010 20:00 10.0 C 85 % 1009.1 hPa 0.0 l/m 3.1 km/h (1 Bft) N-NW 0.00 h 11 W/m 7.5 C 9.9 C 5.6 km/h (1 Bft)
14.05.2010 21:00 9.7 C 88 % 1009.0 hPa 0.0 l/m 2.5 km/h (1 Bft) N-NW 0.00 h 0 W/m 7.8 C 9.6 C 5.0 km/h (1 Bft)
14.05.2010 22:00 9.3 C 87 % 1009.4 hPa 0.0 l/m 0.3 km/h (0 Bft) N 0.00 h 0 W/m 7.3 C 9.3 C 1.6 km/h (1 Bft)
14.05.2010 23:00 9.1 C 87 % 1009.4 hPa 0.0 l/m 1.2 km/h (1 Bft) N 0.00 h 0 W/m 7.0 C 9.1 C 3.2 km/h (1 Bft)
15.05.2010 00:00 9.0 C 86 % 1009.3 hPa 0.0 l/m 0.1 km/h (0 Bft) O-SO 0.00 h 0 W/m 6.8 C 9.0 C 1.2 km/h (1 Bft)
15.05.2010 01:00 8.6 C 89 % 1009.0 hPa 0.0 l/m 0.1 km/h (0 Bft) O-SO 0.00 h 0 W/m 6.9 C 8.6 C 0.6 km/h (0 Bft)
15.05.2010 02:00 8.3 C 91 % 1008.4 hPa 0.0 l/m 0.4 km/h (0 Bft) N-NO 0.00 h 0 W/m 6.9 C 8.3 C 1.7 km/h (1 Bft)
15.05.2010 03:00 8.2 C 92 % 1008.2 hPa 0.0 l/m 0.1 km/h (0 Bft) O 0.00 h 0 W/m 6.9 C 8.2 C 0.6 km/h (0 Bft)
15.05.2010 04:00 8.2 C 92 % 1008.1 hPa 0.0 l/m 0.1 km/h (0 Bft) O 0.00 h 0 W/m 7.0 C 8.2 C 0.4 km/h (0 Bft)
15.05.2010 05:00 8.2 C 93 % 1007.9 hPa 0.0 l/m 1.5 km/h (1 Bft) N-NW 0.00 h 0 W/m 7.2 C 8.2 C 3.1 km/h (1 Bft)
15.05.2010 06:00 8.3 C 94 % 1007.9 hPa 0.0 l/m 0.7 km/h (0 Bft) N 0.00 h 13 W/m 7.4 C 8.3 C 1.7 km/h (1 Bft)
15.05.2010 07:00 8.8 C 90 % 1007.6 hPa 0.0 l/m 2.0 km/h (1 Bft) N-NW 0.00 h 54 W/m 7.2 C 8.7 C 4.7 km/h (1 Bft)
15.05.2010 08:00 9.2 C 85 % 1007.8 hPa 0.0 l/m 2.9 km/h (1 Bft) N-NO 0.00 h 78 W/m 6.8 C 9.1 C 6.1 km/h (2 Bft)
15.05.2010 09:00 9.6 C 85 % 1007.9 hPa 0.0 l/m 2.5 km/h (1 Bft) N 0.00 h 71 W/m 7.2 C 9.5 C 5.2 km/h (1 Bft)
15.05.2010 10:00 9.6 C 84 % 1008.3 hPa 0.0 l/m 3.6 km/h (1 Bft) N-NW 0.00 h 71 W/m 7.0 C 9.4 C 6.4 km/h (2 Bft)
15.05.2010 11:00 10.1 C 80 % 1008.3 hPa 0.0 l/m 6.5 km/h (2 Bft) N-NW 0.00 h 185 W/m 6.9 C 9.8 C 11.2 km/h (2 Bft)
15.05.2010 12:00 11.5 C 74 % 1008.3 hPa 0.0 l/m 5.9 km/h (2 Bft) N-NW 0.00 h 348 W/m 6.9 C 11.5 C 11.0 km/h (2 Bft)
15.05.2010 13:00 11.9 C 71 % 1008.3 hPa 0.0 l/m 5.0 km/h (1 Bft) N 0.00 h 330 W/m 6.8 C 11.9 C 9.8 km/h (2 Bft)
15.05.2010 14:00 11.2 C 77 % 1008.8 hPa 0.0 l/m 4.8 km/h (1 Bft) N-NW 0.00 h 172 W/m 7.3 C 11.2 C 8.2 km/h (2 Bft)
15.05.2010 15:00 10.0 C 87 % 1009.6 hPa 0.4 l/m 5.0 km/h (1 Bft) W-NW 0.00 h 85 W/m 7.9 C 9.9 C 8.2 km/h (2 Bft)
15.05.2010 16:00 9.4 C 93 % 1010.2 hPa 0.0 l/m 2.2 km/h (1 Bft) N-NW 0.00 h 47 W/m 8.4 C 9.4 C 4.4 km/h (1 Bft)
15.05.2010 17:00 9.2 C 87 % 1010.6 hPa 0.0 l/m 2.7 km/h (1 Bft) N 0.00 h 62 W/m 7.1 C 9.0 C 5.9 km/h (2 Bft)
15.05.2010 18:00 8.9 C 85 % 1011.0 hPa 0.0 l/m 2.5 km/h (1 Bft) N 0.00 h 33 W/m 6.6 C 8.8 C 5.7 km/h (1 Bft)
15.05.2010 19:00 9.0 C 85 % 1011.3 hPa 0.0 l/m 0.3 km/h (0 Bft) N-NW 0.00 h 27 W/m 6.6 C 9.0 C 1.1 km/h (1 Bft)
15.05.2010 20:00 8.6 C 91 % 1012.0 hPa 0.0 l/m 0.0 km/h (0 Bft) N 0.00 h 5 W/m 7.2 C 8.6 C 0.2 km/h (0 Bft)
15.05.2010 21:00 8.3 C 94 % 1012.6 hPa 0.2 l/m 0.3 km/h (0 Bft) SO 0.00 h 0 W/m 7.3 C 8.3 C 0.8 km/h (0 Bft)
15.05.2010 22:00 8.0 C 95 % 1013.3 hPa 0.0 l/m 0.4 km/h (0 Bft) SO 0.00 h 0 W/m 7.2 C 8.0 C 1.1 km/h (1 Bft)
15.05.2010 23:00 7.9 C 95 % 1013.7 hPa 0.0 l/m 0.1 km/h (0 Bft) SO 0.00 h 0 W/m 7.1 C 7.9 C 0.3 km/h (0 Bft)
16.05.2010 00:00 7.8 C 95 % 1013.7 hPa 0.0 l/m 0.0 km/h (0 Bft) N 0.00 h 0 W/m 7.0 C 7.8 C 0.0 km/h (0 Bft)
16.05.2010 01:00 7.7 C 95 % 1013.7 hPa 0.0 l/m 0.4 km/h (0 Bft) O 0.00 h 0 W/m 6.9 C 7.7 C 1.2 km/h (1 Bft)
16.05.2010 02:00 7.4 C 96 % 1013.8 hPa 0.0 l/m 0.1 km/h (0 Bft) O 0.00 h 0 W/m 6.8 C 7.4 C 0.3 km/h (0 Bft)
16.05.2010 03:00 7.3 C 95 % 1014.0 hPa 0.0 l/m 0.0 km/h (0 Bft) N 0.00 h 0 W/m 6.6 C 7.3 C 0.1 km/h (0 Bft)
16.05.2010 04:00 7.3 C 95 % 1014.3 hPa 0.0 l/m 0.1 km/h (0 Bft) O 0.00 h 0 W/m 6.6 C 7.3 C 0.3 km/h (0 Bft)
16.05.2010 05:00 7.3 C 95 % 1014.6 hPa 0.0 l/m 0.1 km/h (0 Bft) SO 0.00 h 0 W/m 6.5 C 7.3 C 0.4 km/h (0 Bft)
16.05.2010 06:00 7.3 C 94 % 1015.0 hPa 0.0 l/m 0.3 km/h (0 Bft) S-SO 0.00 h 8 W/m 6.4 C 7.3 C 1.1 km/h (1 Bft)
16.05.2010 07:00 7.4 C 94 % 1015.6 hPa 0.2 l/m 0.8 km/h (0 Bft) S 0.00 h 29 W/m 6.6 C 7.4 C 2.2 km/h (1 Bft)
16.05.2010 08:00 8.1 C 92 % 1016.1 hPa 0.0 l/m 3.1 km/h (1 Bft) S-SO 0.05 h 144 W/m 7.0 C 7.9 C 6.1 km/h (2 Bft)
16.05.2010 09:00 9.7 C 86 % 1016.3 hPa 0.0 l/m 3.3 km/h (1 Bft) W 0.28 h 302 W/m 7.5 C 9.6 C 6.1 km/h (2 Bft)
16.05.2010 10:00 10.8 C 79 % 1016.5 hPa 0.0 l/m 4.0 km/h (1 Bft) W-SW 0.12 h 296 W/m 7.3 C 10.8 C 7.0 km/h (2 Bft)
16.05.2010 11:00 11.7 C 72 % 1016.7 hPa 0.0 l/m 1.7 km/h (1 Bft) W-NW 0.27 h 296 W/m 6.8 C 11.7 C 3.4 km/h (1 Bft)
16.05.2010 12:00 11.7 C 74 % 1016.8 hPa 0.0 l/m 1.8 km/h (1 Bft) W-SW 0.00 h 188 W/m 7.1 C 11.7 C 4.3 km/h (1 Bft)
16.05.2010 13:00 11.9 C 72 % 1017.1 hPa 0.0 l/m 1.6 km/h (1 Bft) W-SW 0.00 h 249 W/m 7.0 C 11.9 C 3.7 km/h (1 Bft)
16.05.2010 14:00 12.9 C 66 % 1017.3 hPa 0.0 l/m 3.8 km/h (1 Bft) W 0.00 h 302 W/m 6.6 C 12.9 C 6.8 km/h (2 Bft)
16.05.2010 15:00 12.9 C 63 % 1017.6 hPa 0.0 l/m 4.0 km/h (1 Bft) W-NW 0.00 h 291 W/m 6.1 C 12.9 C 7.3 km/h (2 Bft)
16.05.2010 16:00 12.7 C 63 % 1018.0 hPa 0.0 l/m 6.0 km/h (2 Bft) W 0.00 h 196 W/m 5.8 C 12.7 C 9.2 km/h (2 Bft)
16.05.2010 17:00 12.4 C 64 % 1018.1 hPa 0.0 l/m 3.0 km/h (1 Bft) W 0.00 h 126 W/m 5.8 C 12.4 C 5.3 km/h (1 Bft)
16.05.2010 18:00 11.8 C 74 % 1018.5 hPa 0.0 l/m 1.5 km/h (1 Bft) S 0.00 h 84 W/m 7.3 C 11.8 C 4.1 km/h (1 Bft)
16.05.2010 19:00 11.1 C 79 % 1018.7 hPa 0.0 l/m 1.2 km/h (1 Bft) S-SO 0.00 h 67 W/m 7.6 C 11.1 C 3.8 km/h (1 Bft)
16.05.2010 20:00 10.2 C 83 % 1019.3 hPa 0.0 l/m 2.0 km/h (1 Bft) O 0.00 h 15 W/m 7.4 C 10.2 C 4.1 km/h (1 Bft)
16.05.2010 21:00 9.7 C 83 % 1020.1 hPa 0.0 l/m 1.9 km/h (1 Bft) S-SO 0.00 h 0 W/m 6.9 C 9.7 C 4.0 km/h (1 Bft)
16.05.2010 22:00 8.9 C 84 % 1020.5 hPa 0.0 l/m 1.9 km/h (1 Bft) SO 0.00 h 0 W/m 6.4 C 8.9 C 3.5 km/h (1 Bft)
16.05.2010 23:00 7.9 C 88 % 1020.8 hPa 0.0 l/m 3.2 km/h (1 Bft) O-SO 0.00 h 0 W/m 6.0 C 7.7 C 4.6 km/h (1 Bft)
Min-Datum _ 14.05.10 12.05.10 11.05.10 - 10.05.10 - - - 16.05.10 16.05.10 10.05.10
_ Min-Zeit 06:23 14:12 14:45 - 00:00 - - - 14:52 23:47 00:00
Minimum _ 7.1 C 46 % 999.2 hPa - 0.0 km/h (0 Bft) - - - 4.6 C 6.3 C 0.0 km/h (0 Bft)
Max-Datum _ 11.05.10 13.05.10 16.05.10 13.05.10 11.05.10 - 10.05.10 11.05.10 11.05.10 11.05.10 11.05.10
_ Max-Zeit 14:25 19:23 23:30 00:03 16:27 - 11:54 12:18 13:55 14:25 17:15
Maximum _ 21.2 C 99 % 1020.8 hPa 8.4 l/m 33.0 km/h
W (5 Bft)
- 0.02 h 1248 W/m 14.2 C 21.3 C 55.6 km/h
W (7 Bft)
Durchschnitt _ 10.8 C 88 % 1008.5 hPa #53.0 l/m 2.1 km/h (1 Bft) N-NW #16:09 h 125 W/m 8.6 C 10.7 C 4.1 km/h (1 Bft)
© Kaiko 2010